SWR74 LSGG-LSZH
Flight info
| Callsign | SWR74 |
|---|---|
| Flight time | N/A |
| Altitude | 17000 |
| Route | SOSAL N871 BERSU |
| Aircraft | A359/H-SDE2E3GHIJ3J4J5LM1ORWXY/LB1D1 |
Departure
| Time | 2026-04-30 15:00 |
|---|---|
| Airport | Geneva International Airport (LSGG) |
Arrival
| Time | N/A |
|---|---|
| Airport | Zürich Airport (LSZH) |
| Time | Latitude | Longitude | Altitude | Speed | Heading |
|---|---|---|---|---|---|
| 2026-04-30 14:34 | 46.23382 | 6.11038 | 1399 ft | 0 kts | 135° |
| 2026-04-30 14:40 | 46.23382 | 6.11037 | 1399 ft | 0 kts | 135° |
| 2026-04-30 14:42 | 46.23383 | 6.11037 | 1399 ft | 0 kts | 135° |
| 2026-04-30 14:46 | 46.23384 | 6.11036 | 1409 ft | 1 kts | 135° |
| 2026-04-30 14:47 | 46.23388 | 6.11030 | 1409 ft | 1 kts | 135° |
| 2026-04-30 14:47 | 46.23396 | 6.11019 | 1409 ft | 0 kts | 135° |
| 2026-04-30 14:49 | 46.23396 | 6.11018 | 1409 ft | 0 kts | 135° |
| 2026-04-30 14:50 | 46.23407 | 6.11003 | 1407 ft | 3 kts | 135° |
| 2026-04-30 14:50 | 46.23422 | 6.10983 | 1409 ft | 4 kts | 162° |
| 2026-04-30 14:51 | 46.23461 | 6.11001 | 1409 ft | 4 kts | 223° |
| 2026-04-30 14:51 | 46.23470 | 6.11013 | 1409 ft | 0 kts | 226° |
| 2026-04-30 14:53 | 46.23470 | 6.11014 | 1409 ft | 0 kts | 226° |
| 2026-04-30 14:54 | 46.23369 | 6.10868 | 1405 ft | 17 kts | 225° |
| 2026-04-30 14:54 | 46.23350 | 6.10826 | 1405 ft | 7 kts | 253° |
| 2026-04-30 14:55 | 46.23387 | 6.10736 | 1407 ft | 14 kts | 324° |
| 2026-04-30 14:55 | 46.23416 | 6.10660 | 1402 ft | 2 kts | 247° |
| 2026-04-30 14:55 | 46.23275 | 6.10461 | 1409 ft | 27 kts | 226° |
| 2026-04-30 14:56 | 46.23005 | 6.10051 | 1406 ft | 29 kts | 226° |
| 2026-04-30 14:56 | 46.22703 | 6.09608 | 1411 ft | 33 kts | 225° |
| 2026-04-30 14:57 | 46.22558 | 6.09359 | 1413 ft | 30 kts | 249° |
| 2026-04-30 14:57 | 46.22608 | 6.09170 | 1424 ft | 4 kts | 1° |
| 2026-04-30 14:58 | 46.22725 | 6.09307 | 1429 ft | 14 kts | 44° |
| 2026-04-30 14:58 | 46.22747 | 6.09342 | 1426 ft | 0 kts | 46° |
| 2026-04-30 15:00 | 46.24078 | 6.11298 | 1631 ft | 168 kts | 45° |
| 2026-04-30 15:00 | 46.25770 | 6.13831 | 3106 ft | 190 kts | 46° |
| 2026-04-30 15:01 | 46.27872 | 6.17009 | 3911 ft | 248 kts | 45° |
| 2026-04-30 15:01 | 46.28688 | 6.18249 | 4375 ft | 256 kts | 45° |
| 2026-04-30 15:01 | 46.31593 | 6.22770 | 6447 ft | 270 kts | 46° |
| 2026-04-30 15:02 | 46.32873 | 6.24792 | 7378 ft | 275 kts | 46° |
| 2026-04-30 15:02 | 46.34013 | 6.27043 | 8352 ft | 279 kts | 56° |
| 2026-04-30 15:03 | 46.36931 | 6.34683 | 11052 ft | 310 kts | 62° |
| 2026-04-30 15:03 | 46.38996 | 6.40592 | 12172 ft | 344 kts | 62° |
| 2026-04-30 15:04 | 46.41194 | 6.46859 | 14017 ft | 352 kts | 62° |
| 2026-04-30 15:04 | 46.44587 | 6.56471 | 15154 ft | 360 kts | 62° |
| 2026-04-30 15:05 | 46.48041 | 6.66262 | 16357 ft | 367 kts | 63° |
| 2026-04-30 15:06 | 46.50364 | 6.72871 | 17151 ft | 372 kts | 63° |
| 2026-04-30 15:06 | 46.52775 | 6.79737 | 17165 ft | 385 kts | 63° |
| 2026-04-30 15:07 | 46.55201 | 6.86615 | 17164 ft | 385 kts | 60° |
| 2026-04-30 15:07 | 46.58282 | 6.92967 | 17170 ft | 384 kts | 52° |
| 2026-04-30 15:08 | 46.61631 | 6.99032 | 17175 ft | 384 kts | 50° |
| 2026-04-30 15:08 | 46.66705 | 7.08063 | 17174 ft | 383 kts | 51° |
| 2026-04-30 15:09 | 46.70032 | 7.14059 | 17171 ft | 383 kts | 51° |
| 2026-04-30 15:09 | 46.73374 | 7.20108 | 17171 ft | 383 kts | 51° |
| 2026-04-30 15:10 | 46.76698 | 7.26154 | 17161 ft | 382 kts | 51° |
| 2026-04-30 15:11 | 46.83337 | 7.38264 | 17157 ft | 382 kts | 51° |
| 2026-04-30 15:11 | 46.86426 | 7.43904 | 17157 ft | 381 kts | 51° |
| 2026-04-30 15:12 | 46.91375 | 7.53003 | 17155 ft | 380 kts | 51° |
| 2026-04-30 15:13 | 46.94657 | 7.59063 | 17159 ft | 379 kts | 51° |
| 2026-04-30 15:14 | 47.01212 | 7.71171 | 17158 ft | 379 kts | 51° |
| 2026-04-30 15:14 | 47.06099 | 7.80233 | 17160 ft | 379 kts | 51° |
| 2026-04-30 15:16 | 47.13615 | 7.94514 | 17196 ft | 380 kts | 59° |
| 2026-04-30 15:17 | 47.18147 | 8.08415 | 17205 ft | 381 kts | 64° |
| 2026-04-30 15:18 | 47.25737 | 8.23522 | 17210 ft | 380 kts | 20° |
| 2026-04-30 15:19 | 47.33373 | 8.21806 | 17090 ft | 384 kts | 325° |